createdAt,value
2019-03-22T00:02:11.566Z,6.83
2019-03-22T00:04:44.569Z,6.80
2019-03-22T00:07:17.517Z,7.47
2019-03-22T00:09:50.102Z,6.13
2019-03-22T00:12:22.611Z,6.75
2019-03-22T00:14:55.133Z,6.70
2019-03-22T00:17:27.626Z,5.60
2019-03-22T00:20:00.360Z,6.17
2019-03-22T00:22:32.910Z,6.90
2019-03-22T00:25:05.808Z,6.50
2019-03-22T00:27:38.378Z,7.55
2019-03-22T00:30:12.359Z,8.50
2019-03-22T00:32:44.867Z,9.73
2019-03-22T00:35:17.476Z,8.78
2019-03-22T00:37:50.349Z,7.60
2019-03-22T00:40:22.887Z,8.65
2019-03-22T00:42:55.555Z,6.03
2019-03-22T00:45:28.351Z,6.43
2019-03-22T00:48:00.839Z,5.97
2019-03-22T00:50:33.366Z,7.28
2019-03-22T00:53:05.937Z,7.53
2019-03-22T00:55:39.695Z,6.60
2019-03-22T00:58:12.261Z,6.40
2019-03-22T01:00:44.845Z,8.17
2019-03-22T01:03:17.350Z,6.45
2019-03-22T01:05:49.889Z,6.07
2019-03-22T01:08:22.510Z,7.80
2019-03-22T01:10:55.091Z,7.33
2019-03-22T01:13:27.584Z,6.92
2019-03-22T01:16:00.389Z,10.93
2019-03-22T01:18:34.035Z,6.47
2019-03-22T01:21:06.668Z,8.20
2019-03-22T01:23:39.463Z,5.00
2019-03-22T01:26:13.095Z,5.97
2019-03-22T01:28:45.587Z,5.83
2019-03-22T01:31:18.170Z,5.10
2019-03-22T01:33:50.668Z,7.37
2019-03-22T01:36:23.166Z,5.17
2019-03-22T01:38:55.659Z,6.80
2019-03-22T01:41:28.156Z,5.92
2019-03-22T01:44:00.734Z,8.27
2019-03-22T01:46:33.361Z,8.70
2019-03-22T01:49:06.100Z,8.57
2019-03-22T01:51:38.603Z,5.90
2019-03-22T01:54:12.336Z,6.43
2019-03-22T01:56:46.185Z,5.37
2019-03-22T01:59:18.721Z,6.42
2019-03-22T02:01:51.226Z,7.70
2019-03-22T02:04:23.810Z,6.37
2019-03-22T02:06:56.388Z,7.37
2019-03-22T02:09:28.952Z,8.50
2019-03-22T02:12:01.802Z,7.07
2019-03-22T02:14:34.336Z,7.73
2019-03-22T02:17:06.985Z,8.37
2019-03-22T02:19:39.806Z,8.97
2019-03-22T02:22:12.480Z,8.83
2019-03-22T02:24:45.052Z,9.77
2019-03-22T02:27:17.565Z,10.20
2019-03-22T02:29:50.452Z,7.37
2019-03-22T02:32:23.036Z,5.93
2019-03-22T02:34:55.535Z,7.07
2019-03-22T02:37:28.120Z,5.92
2019-03-22T02:40:00.691Z,7.43
2019-03-22T02:42:33.209Z,6.57
2019-03-22T02:45:07.255Z,7.13
2019-03-22T02:47:40.152Z,5.97
2019-03-22T02:50:18.535Z,5.17
2019-03-22T02:52:47.579Z,6.10
2019-03-22T02:55:20.104Z,7.75
2019-03-22T02:57:52.613Z,6.47
2019-03-22T03:00:25.188Z,9.43
2019-03-22T03:02:58.029Z,10.93
2019-03-22T03:05:30.527Z,9.75
2019-03-22T03:08:03.196Z,8.03
2019-03-22T03:10:35.787Z,6.53
2019-03-22T03:13:08.394Z,10.83
2019-03-22T03:15:40.904Z,7.20
2019-03-22T03:18:13.673Z,6.47
2019-03-22T03:20:46.185Z,5.53
2019-03-22T03:23:19.223Z,8.37
2019-03-22T03:25:52.038Z,7.50
2019-03-22T03:28:36.090Z,7.17
2019-03-22T03:30:58.847Z,9.27
2019-03-22T03:33:31.426Z,9.93
2019-03-22T03:36:04.045Z,9.60
2019-03-22T03:38:36.861Z,12.83
2019-03-22T03:41:09.537Z,6.47
2019-03-22T03:43:42.121Z,5.87
2019-03-22T03:46:14.644Z,8.03
2019-03-22T03:48:47.150Z,6.50
2019-03-22T03:51:19.765Z,8.53
2019-03-22T03:53:52.287Z,7.73
2019-03-22T03:56:24.808Z,6.08
2019-03-22T03:58:57.312Z,8.63
2019-03-22T04:01:29.990Z,6.95
2019-03-22T04:04:02.489Z,8.10
2019-03-22T04:06:35.032Z,6.07
2019-03-22T04:09:10.131Z,5.77
2019-03-22T04:11:42.723Z,7.83
2019-03-22T04:14:15.307Z,8.47
2019-03-22T04:16:48.015Z,9.43
2019-03-22T04:19:20.699Z,8.43
2019-03-22T04:21:53.531Z,6.43
2019-03-22T04:24:26.119Z,8.65
2019-03-22T04:26:59.914Z,6.67
2019-03-22T04:29:32.738Z,8.63
2019-03-22T04:32:05.361Z,7.20
2019-03-22T04:34:37.935Z,7.78
2019-03-22T04:37:11.976Z,5.40
2019-03-22T04:39:44.742Z,7.13
2019-03-22T04:42:17.349Z,6.35
2019-03-22T04:44:50.072Z,7.92
2019-03-22T04:47:23.907Z,6.55
2019-03-22T04:49:57.833Z,4.83
2019-03-22T04:52:30.631Z,10.38
2019-03-22T04:55:04.488Z,6.00
2019-03-22T04:57:38.680Z,11.83
2019-03-22T05:00:12.519Z,7.75
2019-03-22T05:02:46.336Z,8.77
2019-03-22T05:05:20.778Z,10.27
2019-03-22T05:07:54.549Z,9.77
2019-03-22T05:10:28.399Z,6.65
2019-03-22T05:13:03.596Z,5.67
2019-03-22T05:15:36.843Z,5.63
2019-03-22T05:18:09.916Z,6.93
2019-03-22T05:20:44.172Z,6.67
2019-03-22T05:23:18.076Z,7.58
2019-03-22T05:25:53.228Z,5.70
2019-03-22T05:28:27.918Z,6.30
2019-03-22T05:31:40.815Z,7.33
2019-03-22T05:34:13.630Z,7.37
2019-03-22T05:36:46.177Z,6.43
2019-03-22T05:39:18.728Z,8.50
2019-03-22T05:41:51.638Z,9.50
2019-03-22T05:44:24.213Z,8.38
2019-03-22T05:46:56.941Z,7.70
2019-03-22T05:49:29.905Z,9.17
2019-03-22T05:52:02.443Z,6.17
2019-03-22T05:54:35.099Z,6.07
2019-03-22T05:57:13.134Z,5.47
2019-03-22T05:59:43.094Z,10.67
2019-03-22T06:02:15.757Z,7.73
2019-03-22T06:04:48.264Z,7.43
2019-03-22T06:07:20.769Z,5.17
2019-03-22T06:09:53.277Z,9.93
2019-03-22T06:12:25.869Z,10.28
2019-03-22T06:14:58.430Z,7.60
2019-03-22T06:17:30.934Z,9.73
2019-03-22T06:20:03.538Z,12.33
2019-03-22T06:22:36.126Z,6.23
2019-03-22T06:25:08.735Z,6.27
2019-03-22T06:27:41.243Z,6.70
2019-03-22T06:30:14.104Z,11.50
2019-03-22T06:32:46.625Z,6.87
2019-03-22T06:35:19.251Z,9.28
2019-03-22T06:37:51.850Z,12.23
2019-03-22T06:40:24.515Z,8.87
2019-03-22T06:42:57.049Z,7.67
2019-03-22T06:45:29.595Z,10.03
2019-03-22T06:48:02.094Z,8.47
2019-03-22T06:50:34.993Z,9.93
2019-03-22T06:53:07.493Z,11.37
2019-03-22T06:55:40.019Z,11.67
2019-03-22T06:58:12.531Z,19.20
2019-03-22T07:00:45.061Z,20.67
2019-03-22T07:03:17.668Z,45.33
2019-03-22T07:05:50.217Z,22.83
2019-03-22T07:08:22.790Z,12.07
2019-03-22T07:10:55.315Z,9.13
2019-03-22T07:13:27.902Z,11.10
2019-03-22T07:16:00.435Z,10.53
2019-03-22T07:18:33.294Z,9.77
2019-03-22T07:21:05.975Z,12.53
2019-03-22T07:23:38.753Z,13.90
2019-03-22T07:26:12.027Z,9.83
2019-03-22T07:28:44.562Z,14.17
2019-03-22T07:31:17.104Z,15.63
2019-03-22T07:33:49.625Z,11.97
2019-03-22T07:36:22.232Z,12.73
2019-03-22T07:38:54.823Z,9.93
2019-03-22T07:41:27.369Z,9.53
2019-03-22T07:43:59.901Z,11.93
2019-03-22T07:46:32.446Z,11.70
2019-03-22T07:49:04.963Z,9.40
2019-03-22T07:51:38.531Z,9.27
2019-03-22T07:54:12.178Z,10.70
2019-03-22T07:56:44.708Z,13.03
2019-03-22T07:59:17.573Z,10.40
2019-03-22T08:01:51.177Z,8.10
2019-03-22T08:04:23.765Z,9.93
2019-03-22T08:06:56.287Z,10.27
2019-03-22T08:09:28.916Z,10.78
2019-03-22T08:12:01.513Z,13.30
2019-03-22T08:14:34.115Z,12.47
2019-03-22T08:17:06.767Z,7.87
2019-03-22T08:19:39.416Z,10.87
2019-03-22T08:22:13.174Z,12.90
2019-03-22T08:24:45.680Z,11.93
2019-03-22T08:27:18.171Z,8.50
2019-03-22T08:29:50.686Z,9.80
2019-03-22T08:32:23.213Z,9.40
2019-03-22T08:34:55.751Z,8.03
2019-03-22T08:37:28.233Z,9.13
2019-03-22T08:40:01.747Z,9.23
2019-03-22T08:42:34.235Z,12.43
2019-03-22T08:45:07.161Z,9.27
2019-03-22T08:47:39.749Z,9.47
2019-03-22T08:50:12.449Z,10.87
2019-03-22T08:52:45.078Z,9.07
2019-03-22T08:55:17.585Z,10.87
2019-03-22T08:57:50.145Z,10.23
2019-03-22T09:00:22.756Z,10.67
2019-03-22T09:02:55.264Z,10.67
2019-03-22T09:05:27.810Z,8.97
2019-03-22T09:08:00.376Z,11.43
2019-03-22T09:10:32.978Z,8.97
2019-03-22T09:13:05.554Z,12.27
2019-03-22T09:15:41.729Z,10.70
2019-03-22T09:18:15.415Z,9.20
2019-03-22T09:20:46.717Z,9.33
2019-03-22T09:23:19.231Z,9.63
2019-03-22T09:25:52.227Z,8.70
2019-03-22T09:28:24.866Z,9.67
2019-03-22T09:31:09.866Z,10.87
2019-03-22T09:33:31.875Z,10.87
2019-03-22T09:36:04.452Z,9.67
2019-03-22T09:38:37.086Z,10.50
2019-03-22T09:41:09.669Z,7.90
2019-03-22T09:43:42.312Z,9.73
2019-03-22T09:46:14.870Z,8.60
2019-03-22T09:48:47.704Z,9.13
2019-03-22T09:51:20.220Z,11.73
2019-03-22T09:53:52.876Z,10.50
2019-03-22T09:56:25.345Z,8.27
2019-03-22T09:58:57.879Z,12.40
2019-03-22T10:01:30.396Z,10.47
2019-03-22T10:04:02.960Z,9.40
2019-03-22T10:06:35.456Z,6.33
2019-03-22T10:09:09.808Z,6.33
2019-03-22T10:11:42.316Z,8.10
2019-03-22T10:14:14.905Z,7.57
2019-03-22T10:16:47.940Z,6.63
2019-03-22T10:19:20.621Z,8.93
2019-03-22T10:21:53.253Z,8.60
2019-03-22T10:24:25.934Z,9.27
2019-03-22T10:26:58.515Z,8.50
2019-03-22T10:29:31.102Z,11.47
2019-03-22T10:32:03.624Z,9.40
2019-03-22T10:34:36.171Z,6.80
2019-03-22T10:37:08.764Z,9.80
2019-03-22T10:39:41.795Z,9.20
2019-03-22T10:42:14.358Z,8.47
2019-03-22T10:44:46.875Z,7.43
2019-03-22T10:47:19.449Z,8.00
2019-03-22T10:49:52.069Z,7.00
2019-03-22T10:52:24.699Z,6.87
2019-03-22T10:54:57.231Z,8.07
2019-03-22T10:57:30.078Z,7.30
2019-03-22T11:00:02.603Z,9.00
2019-03-22T11:02:35.265Z,6.63
2019-03-22T11:05:10.313Z,6.07
2019-03-22T11:07:42.850Z,7.40
2019-03-22T11:10:15.639Z,6.20
2019-03-22T11:12:48.154Z,6.17
2019-03-22T11:15:20.883Z,7.07
2019-03-22T11:17:53.397Z,5.40
2019-03-22T11:20:26.092Z,5.60
2019-03-22T11:22:58.743Z,6.40
2019-03-22T11:25:31.271Z,6.13
2019-03-22T11:28:03.974Z,7.87
2019-03-22T11:30:36.580Z,6.90
2019-03-22T11:33:09.208Z,9.97
2019-03-22T11:35:41.813Z,8.97
2019-03-22T11:38:14.410Z,6.93
2019-03-22T11:40:47.228Z,6.90
2019-03-22T11:43:20.793Z,8.45
2019-03-22T11:45:53.650Z,8.83
2019-03-22T11:48:26.255Z,7.85
2019-03-22T11:50:58.953Z,8.60
2019-03-22T11:53:31.487Z,5.77
2019-03-22T11:56:04.107Z,7.80
2019-03-22T11:58:37.282Z,8.03
2019-03-22T12:01:19.155Z,7.10
2019-03-22T12:03:44.179Z,5.90
2019-03-22T12:06:16.869Z,5.72
2019-03-22T12:08:49.552Z,7.13
2019-03-22T12:11:22.221Z,7.72
2019-03-22T12:13:54.829Z,7.37
2019-03-22T12:16:27.374Z,7.40
2019-03-22T12:18:59.931Z,6.93
2019-03-22T12:21:33.124Z,9.47
2019-03-22T12:24:05.854Z,6.90
2019-03-22T12:26:38.387Z,11.30
2019-03-22T12:29:12.135Z,6.97
2019-03-22T12:31:44.666Z,6.53
2019-03-22T12:34:17.192Z,12.20
2019-03-22T12:36:49.793Z,9.13
2019-03-22T12:39:22.454Z,8.20
2019-03-22T12:41:55.041Z,9.17
2019-03-22T12:44:27.808Z,9.00
2019-03-22T12:47:00.505Z,12.33
2019-03-22T12:49:33.045Z,10.60
2019-03-22T12:52:05.675Z,7.90
2019-03-22T12:54:38.274Z,9.90
2019-03-22T12:57:12.719Z,9.43
2019-03-22T12:59:45.276Z,10.30
2019-03-22T13:02:17.801Z,9.10
2019-03-22T13:04:50.328Z,10.10
2019-03-22T13:07:22.962Z,7.75
2019-03-22T13:09:55.547Z,11.33
2019-03-22T13:12:28.099Z,11.40
2019-03-22T13:15:00.623Z,9.83
2019-03-22T13:17:33.158Z,14.23
2019-03-22T13:20:09.150Z,9.87
2019-03-22T13:22:41.572Z,7.42
2019-03-22T13:25:15.415Z,8.73
2019-03-22T13:27:48.020Z,8.40
2019-03-22T13:30:37.952Z,10.03
2019-03-22T13:33:10.497Z,7.10
2019-03-22T13:35:43.016Z,9.23
2019-03-22T13:38:15.623Z,8.97
2019-03-22T13:40:48.141Z,10.50
2019-03-22T13:43:21.013Z,9.18
2019-03-22T13:45:53.539Z,11.33
2019-03-22T13:48:26.046Z,10.73
2019-03-22T13:50:58.586Z,9.50
2019-03-22T13:53:31.179Z,8.20
2019-03-22T13:56:03.883Z,9.27
2019-03-22T13:58:37.372Z,9.70
2019-03-22T14:01:10.396Z,9.07
2019-03-22T14:03:42.908Z,9.50
2019-03-22T14:06:15.437Z,7.67
2019-03-22T14:08:48.023Z,11.10
2019-03-22T14:11:20.620Z,10.67
2019-03-22T14:13:53.142Z,8.30
2019-03-22T14:16:25.687Z,9.50
2019-03-22T14:19:00.141Z,8.10
2019-03-22T14:21:32.784Z,9.13
2019-03-22T14:24:05.539Z,7.50
2019-03-22T14:26:38.165Z,9.67
2019-03-22T14:29:11.922Z,8.77
2019-03-22T14:31:44.472Z,8.80
2019-03-22T14:34:17.124Z,7.60
2019-03-22T14:36:49.648Z,8.75
2019-03-22T14:39:22.149Z,8.23
2019-03-22T14:41:54.690Z,10.80
2019-03-22T14:44:28.296Z,8.20
2019-03-22T14:47:00.975Z,6.33
2019-03-22T14:49:33.841Z,8.73
2019-03-22T14:52:06.488Z,6.63
2019-03-22T14:54:39.012Z,7.70
2019-03-22T14:57:11.892Z,8.00
2019-03-22T14:59:44.406Z,12.90
2019-03-22T15:02:17.024Z,8.93
2019-03-22T15:04:49.546Z,8.83
2019-03-22T15:07:22.149Z,6.17
2019-03-22T15:09:54.669Z,9.63
2019-03-22T15:12:27.183Z,8.33
2019-03-22T15:15:15.605Z,6.63
2019-03-22T15:18:16.340Z,7.37
2019-03-22T15:21:08.823Z,8.00
2019-03-22T15:24:15.767Z,3.33
2019-03-22T15:27:19.559Z,13.03
2019-03-22T15:30:10.834Z,4.13
2019-03-22T15:32:51.607Z,5.17
2019-03-22T15:35:37.693Z,6.47
2019-03-22T15:38:32.111Z,8.57
2019-03-22T15:41:05.030Z,7.20
2019-03-22T15:43:37.558Z,6.77
2019-03-22T15:46:10.175Z,9.10
2019-03-22T15:48:42.799Z,4.97
2019-03-22T15:51:15.340Z,5.23
2019-03-22T15:53:48.238Z,4.97
2019-03-22T15:56:20.874Z,5.10
2019-03-22T15:58:53.467Z,6.30
2019-03-22T16:01:26.173Z,5.83
2019-03-22T16:03:58.776Z,6.13
2019-03-22T16:06:31.391Z,5.40
2019-03-22T16:09:05.731Z,6.30
2019-03-22T16:11:38.283Z,5.90
2019-03-22T16:14:12.115Z,5.73
2019-03-22T16:16:45.638Z,8.23
2019-03-22T16:19:18.320Z,6.50
2019-03-22T16:21:50.859Z,5.40
2019-03-22T16:24:23.739Z,5.37
2019-03-22T16:26:56.311Z,5.20
2019-03-22T16:29:28.930Z,14.07
2019-03-22T16:32:01.481Z,8.43
2019-03-22T16:34:33.996Z,9.67
2019-03-22T16:37:06.615Z,6.07
2019-03-22T16:39:39.217Z,7.33
2019-03-22T16:42:12.186Z,9.50
2019-03-22T16:44:44.789Z,8.87
2019-03-22T16:47:17.311Z,8.73
2019-03-22T16:49:49.840Z,7.83
2019-03-22T16:52:22.400Z,7.43
2019-03-22T16:54:54.926Z,6.80
2019-03-22T16:57:27.465Z,8.00
2019-03-22T17:00:00.064Z,7.93
2019-03-22T17:02:32.661Z,6.53
2019-03-22T17:05:05.392Z,8.23
2019-03-22T17:07:37.964Z,7.27
2019-03-22T17:10:11.254Z,8.63
2019-03-22T17:12:43.776Z,8.60
2019-03-22T17:15:16.489Z,8.27
2019-03-22T17:17:49.096Z,7.97
2019-03-22T17:20:21.791Z,11.20
2019-03-22T17:22:54.380Z,7.90
2019-03-22T17:25:27.173Z,6.63
2019-03-22T17:27:59.779Z,7.00
2019-03-22T17:30:32.690Z,10.80
2019-03-22T17:33:05.505Z,9.20
2019-03-22T17:35:39.096Z,11.53
2019-03-22T17:38:11.954Z,10.38
2019-03-22T17:40:44.562Z,7.97
2019-03-22T17:43:17.208Z,9.63
2019-03-22T17:45:50.097Z,9.60
2019-03-22T17:48:22.985Z,8.00
2019-03-22T17:50:55.586Z,14.17
2019-03-22T17:53:28.182Z,14.53
2019-03-22T17:56:01.979Z,11.07
2019-03-22T17:58:34.751Z,10.33
2019-03-22T18:01:07.352Z,9.17
2019-03-22T18:03:40.841Z,10.30
2019-03-22T18:06:13.523Z,12.10
2019-03-22T18:08:46.361Z,13.20
2019-03-22T18:11:19.391Z,12.93
2019-03-22T18:13:51.981Z,10.93
2019-03-22T18:16:24.547Z,16.40
2019-03-22T18:18:57.334Z,9.23
2019-03-22T18:21:30.189Z,11.23
2019-03-22T18:24:03.029Z,11.53
2019-03-22T18:26:36.134Z,11.70
2019-03-22T18:29:09.007Z,9.50
2019-03-22T18:31:41.547Z,11.23
2019-03-22T18:34:14.113Z,10.53
2019-03-22T18:36:46.625Z,11.50
2019-03-22T18:39:19.168Z,9.77
2019-03-22T18:41:51.985Z,9.87
2019-03-22T18:44:24.726Z,11.37
2019-03-22T18:46:57.523Z,10.10
2019-03-22T18:49:30.108Z,12.35
2019-03-22T18:52:02.710Z,9.57
2019-03-22T18:54:35.575Z,13.83
2019-03-22T18:57:08.308Z,11.10
2019-03-22T18:59:40.961Z,11.10
2019-03-22T19:02:13.501Z,11.97
2019-03-22T19:04:46.116Z,12.57
2019-03-22T19:07:18.792Z,14.53
2019-03-22T19:09:52.443Z,11.07
2019-03-22T19:12:24.971Z,12.40
2019-03-22T19:14:57.642Z,11.07
2019-03-22T19:17:30.398Z,16.17
2019-03-22T19:20:03.110Z,19.23
2019-03-22T19:22:35.787Z,19.27
2019-03-22T19:25:09.226Z,19.83
2019-03-22T19:27:42.064Z,17.37
2019-03-22T19:30:14.982Z,18.93
2019-03-22T19:35:39.324Z,11.50
2019-03-22T19:38:12.449Z,14.28
2019-03-22T19:40:45.052Z,15.93
2019-03-22T19:43:17.637Z,14.23
2019-03-22T19:45:50.244Z,14.30
2019-03-22T19:48:22.825Z,15.00
2019-03-22T19:50:55.356Z,12.90
2019-03-22T19:53:27.950Z,15.20
2019-03-22T19:56:00.565Z,12.27
2019-03-22T19:58:33.132Z,17.60
2019-03-22T20:01:05.797Z,13.80
2019-03-22T20:03:38.508Z,15.32
2019-03-22T20:06:11.729Z,11.70
2019-03-22T20:08:44.974Z,10.13
2019-03-22T20:11:17.689Z,12.53
2019-03-22T20:13:50.322Z,10.97
2019-03-22T20:16:22.929Z,12.57
2019-03-22T20:18:55.498Z,13.00
2019-03-22T20:21:28.651Z,15.15
2019-03-22T20:24:01.157Z,12.23
2019-03-22T20:26:34.211Z,11.80
2019-03-22T20:29:06.862Z,10.20
2019-03-22T20:31:39.931Z,8.53
2019-03-22T20:34:12.706Z,10.57
2019-03-22T20:36:45.683Z,11.93
2019-03-22T20:39:18.310Z,11.63
2019-03-22T20:41:50.895Z,13.77
2019-03-22T20:44:33.407Z,13.60
2019-03-22T20:46:57.802Z,12.83
2019-03-22T20:49:30.420Z,12.43
2019-03-22T20:52:02.952Z,10.50
2019-03-22T20:54:35.546Z,13.40
2019-03-22T20:57:08.200Z,20.07
2019-03-22T20:59:40.767Z,11.13
2019-03-22T21:02:13.670Z,9.50
2019-03-22T21:04:46.279Z,12.30
2019-03-22T21:07:18.954Z,18.43
2019-03-22T21:09:51.535Z,11.28
2019-03-22T21:12:24.627Z,14.30
2019-03-22T21:14:57.269Z,11.00
2019-03-22T21:17:29.830Z,13.03
2019-03-22T21:20:02.659Z,10.80
2019-03-22T21:22:35.923Z,10.47
2019-03-22T21:25:08.856Z,12.53
2019-03-22T21:27:41.509Z,14.87
2019-03-22T21:30:14.350Z,10.23
2019-03-22T21:32:47.361Z,13.50
2019-03-22T21:35:22.761Z,10.73
2019-03-22T21:37:54.465Z,9.70
2019-03-22T21:40:27.271Z,11.70
2019-03-22T21:43:00.224Z,14.60
2019-03-22T21:45:32.942Z,12.13
2019-03-22T21:48:05.756Z,12.10
2019-03-22T21:50:38.389Z,15.07
2019-03-22T21:53:12.328Z,11.60
2019-03-22T21:55:44.901Z,10.73
2019-03-22T21:58:17.484Z,11.15
2019-03-22T22:00:50.390Z,11.87
2019-03-22T22:03:22.971Z,11.88
2019-03-22T22:05:56.584Z,11.50
2019-03-22T22:08:29.124Z,13.60
2019-03-22T22:11:01.730Z,14.43
2019-03-22T22:13:34.296Z,11.50
2019-03-22T22:16:07.052Z,12.20
2019-03-22T22:18:39.793Z,17.63
2019-03-22T22:21:12.365Z,11.30
2019-03-22T22:23:45.213Z,15.23
2019-03-22T22:26:17.791Z,13.05
2019-03-22T22:28:50.409Z,10.90
2019-03-22T22:31:22.999Z,13.67
2019-03-22T22:33:55.509Z,13.23
2019-03-22T22:36:28.103Z,16.27
2019-03-22T22:39:01.829Z,15.67
2019-03-22T22:41:35.974Z,21.73
2019-03-22T22:44:08.567Z,20.37
2019-03-22T22:46:42.219Z,12.57
2019-03-22T22:49:14.819Z,20.90
2019-03-22T22:51:47.441Z,17.60
2019-03-22T22:54:19.967Z,22.07
2019-03-22T22:56:52.481Z,15.23
2019-03-22T22:59:25.314Z,11.83
2019-03-22T23:01:57.876Z,16.90
2019-03-22T23:04:32.213Z,21.82
2019-03-22T23:07:04.905Z,16.53
2019-03-22T23:09:37.486Z,14.57
2019-03-22T23:12:09.992Z,18.53
2019-03-22T23:14:42.534Z,15.97
2019-03-22T23:17:15.126Z,14.33
2019-03-22T23:19:47.649Z,16.87
2019-03-22T23:22:20.147Z,12.27
2019-03-22T23:24:52.667Z,10.97
2019-03-22T23:27:25.268Z,16.27
2019-03-22T23:29:57.792Z,15.13
2019-03-22T23:32:30.373Z,18.13
2019-03-22T23:35:02.904Z,15.63
2019-03-22T23:37:35.489Z,14.17
2019-03-22T23:40:08.274Z,16.73
2019-03-22T23:42:41.220Z,16.00
2019-03-22T23:45:13.986Z,12.33
2019-03-22T23:47:46.504Z,11.80
2019-03-22T23:50:19.113Z,16.77
2019-03-22T23:52:51.784Z,17.67
2019-03-22T23:55:24.386Z,15.43
2019-03-22T23:57:56.898Z,17.50
